Time;durP1;ratioP1;P1;durP2;ratioP2;P2;SDS_P1;SDS_P2;PMS_P1;PMS_P2;Temp;Humidity;BMP_temperature;BMP_pressure;BME280_temperature;BME280_humidity;BME280_pressure;Samples;Min_cycle;Max_cycle;Signal;HPM_P1;HPM_P2
2023/01/21 00:01:45;;;;;;;10.80;7.03;;;1.40;99.90;;;1.05;79.97;100333.91;5080536;28;20225;-65
2023/01/21 00:04:14;;;;;;;11.60;7.23;;;1.40;99.90;;;1.09;79.87;100345.03;5083421;28;20220;-65
2023/01/21 00:06:42;;;;;;;12.40;7.17;;;1.40;99.90;;;1.10;79.85;100345.06;5082829;28;20236;-64
2023/01/21 00:09:11;;;;;;;9.33;6.70;;;1.50;99.90;;;1.10;79.67;100339.97;5083294;28;20208;-66
2023/01/21 00:11:41;;;;;;;11.20;7.20;;;1.40;99.90;;;1.09;79.83;100338.28;5085993;28;20204;-64
2023/01/21 00:14:10;;;;;;;10.27;6.80;;;1.40;99.90;;;1.10;79.19;100349.28;5083087;28;20234;-66
2023/01/21 00:16:38;;;;;;;11.03;6.67;;;1.40;99.90;;;1.10;79.62;100341.66;5079699;28;20205;-64
2023/01/21 00:19:07;;;;;;;11.13;7.13;;;1.50;99.90;;;1.13;79.33;100336.69;5082340;28;20381;-63
2023/01/21 00:21:35;;;;;;;12.33;7.83;;;1.50;99.90;;;1.10;79.87;100334.91;5081312;28;20210;-69
2023/01/21 00:24:04;;;;;;;11.77;6.73;;;1.50;99.90;;;1.15;79.50;100328.31;5077505;28;20676;-65
2023/01/21 00:26:32;;;;;;;10.37;7.17;;;1.50;99.90;;;1.16;79.46;100335.09;5080173;28;20949;-63
2023/01/21 00:29:02;;;;;;;12.33;7.40;;;1.50;99.90;;;1.17;79.52;100336.81;5085502;28;20209;-65
2023/01/21 00:31:31;;;;;;;10.37;6.70;;;1.50;99.90;;;1.19;79.46;100339.44;5081030;28;20216;-65
2023/01/21 00:33:59;;;;;;;10.33;7.47;;;1.50;99.90;;;1.19;79.43;100329.28;5084421;28;20692;-65
2023/01/21 00:36:28;;;;;;;10.90;6.73;;;1.50;99.90;;;1.20;79.18;100325.91;5086003;28;20284;-66
2023/01/21 00:38:57;;;;;;;10.83;7.40;;;1.50;99.90;;;1.21;79.42;100317.47;5085332;28;20204;-66
2023/01/21 00:41:26;;;;;;;9.70;6.33;;;1.60;99.90;;;1.22;78.84;100314.16;5088196;28;20212;-65
2023/01/21 00:43:54;;;;;;;7.83;5.70;;;1.60;99.90;;;1.21;78.56;100307.31;5078501;28;20248;-66
2023/01/21 00:46:24;;;;;;;8.80;5.70;;;1.60;99.90;;;1.21;79.10;100297.16;5088746;28;20305;-64
2023/01/21 00:48:54;;;;;;;10.33;5.97;;;1.60;99.90;;;1.23;79.05;100307.41;5089126;28;20710;-66
2023/01/21 00:51:23;;;;;;;10.00;6.27;;;1.60;99.90;;;1.20;78.86;100296.31;5081631;28;20252;-63
2023/01/21 00:53:51;;;;;;;7.90;5.40;;;1.60;99.90;;;1.22;78.66;100308.22;5090777;28;20291;-65
2023/01/21 00:56:20;;;;;;;10.17;5.90;;;1.60;99.90;;;1.22;78.40;100303.13;5088702;28;20208;-64
2023/01/21 00:58:49;;;;;;;7.50;5.53;;;1.60;99.90;;;1.21;79.12;100297.16;5079188;28;20208;-66
2023/01/21 01:01:20;;;;;;;6.93;5.50;;;1.60;99.90;;;1.23;78.68;100290.47;5090423;28;20319;-64
2023/01/21 01:03:51;;;;;;;7.07;5.07;;;1.60;99.90;;;1.24;78.46;100286.25;5090185;28;20781;-65
2023/01/21 01:06:23;;;;;;;6.53;4.87;;;1.60;99.90;;;1.24;78.82;100299.81;5089971;28;20226;-62
2023/01/21 01:08:53;;;;;;;8.43;4.73;;;1.60;99.90;;;1.26;78.80;100282.09;5078698;28;20886;-65
2023/01/21 01:11:23;;;;;;;6.93;4.60;;;1.60;99.90;;;1.26;78.11;100297.34;5085290;28;20208;-65
2023/01/21 01:13:51;;;;;;;6.97;4.43;;;1.60;99.90;;;1.24;78.40;100276.97;5082606;28;20209;-66
2023/01/21 01:16:22;;;;;;;5.87;4.40;;;1.60;99.90;;;1.26;78.01;100272.81;5088048;28;20631;-66
2023/01/21 01:18:52;;;;;;;6.47;4.87;;;1.60;99.90;;;1.29;78.16;100280.53;5086620;28;20248;-64
2023/01/21 01:21:22;;;;;;;6.13;4.47;;;1.60;99.90;;;1.31;78.40;100283.09;5087715;28;20208;-64
2023/01/21 01:23:53;;;;;;;5.30;4.20;;;1.60;99.90;;;1.32;77.82;100283.13;5090337;28;20228;-65
2023/01/21 01:26:22;;;;;;;5.90;4.50;;;1.70;99.90;;;1.33;78.30;100284.88;5091480;28;20285;-65
2023/01/21 01:28:51;;;;;;;5.30;4.10;;;1.70;99.90;;;1.32;78.32;100285.66;5090439;28;20220;-66
2023/01/21 01:31:21;;;;;;;4.77;4.27;;;1.70;99.90;;;1.33;78.03;100286.56;5087133;28;20263;-67
2023/01/21 01:33:51;;;;;;;5.30;4.30;;;1.70;99.90;;;1.33;78.30;100278.94;5091027;28;20235;-66
2023/01/21 01:36:22;;;;;;;4.97;4.10;;;1.70;99.90;;;1.30;78.74;100261.94;5090514;28;20201;-64
2023/01/21 01:38:52;;;;;;;4.10;3.70;;;1.70;99.90;;;1.32;78.66;100262.81;5090130;28;20201;-66
2023/01/21 01:41:24;;;;;;;4.80;4.30;;;1.60;99.90;;;1.29;78.96;100259.31;5086449;28;20201;-66
2023/01/21 01:43:57;;;;;;;5.43;3.90;;;1.60;99.90;;;1.23;79.08;100254.94;5090037;28;20652;-63
2023/01/21 01:46:28;;;;;;;5.53;3.30;;;1.60;99.90;;;1.21;80.07;100256.56;5088341;28;20375;-63
2023/01/21 01:49:08;;;;;;;4.53;3.80;;;1.60;99.90;;;1.20;80.58;100244.69;5083931;28;20193;-65
2023/01/21 01:51:46;;;;;;;5.10;3.90;;;1.60;99.90;;;1.16;80.22;100245.44;5086048;28;20228;-63
2023/01/21 01:54:20;;;;;;;4.40;3.37;;;1.50;99.90;;;1.11;81.21;100226.69;5087326;28;20925;-64
2023/01/21 01:56:51;;;;;;;3.93;3.20;;;1.50;99.90;;;1.08;80.99;100222.38;5088788;28;20315;-64
2023/01/21 01:59:20;;;;;;;4.97;3.07;;;1.40;99.90;;;1.03;81.79;100212.88;5090936;28;20602;-63
2023/01/21 02:01:49;;;;;;;4.23;3.30;;;1.40;99.90;;;0.98;81.78;100206.84;5080606;28;20221;-64
2023/01/21 02:04:26;;;;;;;3.57;3.20;;;1.40;99.90;;;0.94;82.07;100216.03;5077981;28;21497;-64
2023/01/21 02:06:55;;;;;;;5.00;3.80;;;1.30;99.90;;;0.92;82.23;100195.69;5090849;28;20523;-65
2023/01/21 02:09:28;;;;;;;4.03;3.13;;;1.30;99.90;;;0.88;82.88;100196.38;5089698;28;20200;-63
2023/01/21 02:11:58;;;;;;;4.27;3.27;;;1.20;99.90;;;0.83;83.34;100185.25;5086683;28;20288;-65
2023/01/21 02:14:27;;;;;;;4.27;3.47;;;1.20;99.90;;;0.83;83.50;100184.41;5085563;28;20564;-62
2023/01/21 02:17:11;;;;;;;4.57;3.20;;;1.20;99.90;;;0.82;83.52;100175.94;5089222;28;20676;-65
2023/01/21 02:20:37;;;;;;;4.63;3.50;;;1.20;99.90;;;0.79;83.92;100175.84;5089979;28;20232;-65
2023/01/21 02:23:13;;;;;;;4.77;3.17;;;1.20;99.90;;;0.78;83.54;100171.59;5056305;28;20253;-63
2023/01/21 02:26:35;;;;;;;3.43;2.97;;;1.10;99.90;;;0.78;83.55;100178.34;5084189;28;20231;-63
2023/01/21 02:30:01;;;;;;;4.67;3.27;;;1.10;99.90;;;0.77;83.42;100176.59;5061924;28;20270;-64
2023/01/21 02:33:27;;;;;;;6.17;4.13;;;1.10;99.90;;;0.76;84.17;100168.13;5008764;28;20206;-66
2023/01/21 02:36:09;;;;;;;3.57;3.20;;;1.10;99.90;;;0.77;83.79;100174.06;5086877;28;20200;-65
2023/01/21 02:38:46;;;;;;;3.50;3.20;;;1.10;99.90;;;0.76;83.96;100169.81;5085983;28;20250;-66
2023/01/21 02:41:29;;;;;;;3.97;3.40;;;1.10;99.90;;;0.73;84.37;100160.44;5090462;28;20200;-63
2023/01/21 02:44:10;;;;;;;3.90;3.00;;;1.10;99.90;;;0.72;83.78;100169.72;5087775;28;20200;-67
2023/01/21 02:46:44;;;;;;;4.27;3.37;;;1.10;99.90;;;0.71;84.09;100159.53;5090523;28;20732;-64
2023/01/21 02:49:21;;;;;;;6.93;3.37;;;1.00;99.90;;;0.68;84.94;100157.78;5084608;28;20695;-66
2023/01/21 02:51:49;;;;;;;4.97;3.40;;;1.00;99.90;;;0.74;84.74;100174.84;5079485;28;20289;-63
2023/01/21 02:54:50;;;;;;;4.20;3.47;;;1.00;99.90;;;0.70;84.12;100162.88;5074864;28;20337;-64
2023/01/21 02:57:35;;;;;;;3.20;2.90;;;1.00;99.90;;;0.68;84.78;100159.44;5078677;28;20200;-64
2023/01/21 03:00:11;;;;;;;4.07;3.40;;;1.00;99.90;;;0.68;84.42;100162.00;5085129;28;20224;-65
2023/01/21 03:03:24;;;;;;;3.23;2.93;;;1.00;99.90;;;0.66;84.46;100156.88;5081279;28;20200;-66
2023/01/21 03:06:40;;;;;;;3.57;2.97;;;1.00;99.90;;;0.65;84.81;100137.38;5087262;28;20221;-66
2023/01/21 03:09:21;;;;;;;3.33;2.87;;;1.00;99.90;;;0.64;84.69;100139.91;5082677;28;20236;-64
2023/01/21 03:12:07;;;;;;;3.30;3.00;;;1.00;99.90;;;0.63;84.85;100133.09;5081638;28;20318;-66
2023/01/21 03:17:37;;;;;;;3.50;3.00;;;1.00;99.90;;;0.61;85.20;100134.72;5085932;28;20726;-63
2023/01/21 03:20:12;;;;;;;4.13;2.83;;;1.00;99.90;;;0.58;85.43;100109.28;5087918;28;20278;-63
2023/01/21 03:22:44;;;;;;;3.23;2.80;;;0.90;99.90;;;0.56;84.88;100108.38;5087757;28;20200;-63
2023/01/21 03:25:15;;;;;;;4.57;3.13;;;0.90;99.90;;;0.57;85.35;100110.09;5087593;28;20212;-64
2023/01/21 03:27:47;;;;;;;4.07;3.10;;;0.90;99.90;;;0.57;85.54;100105.03;5081964;28;20201;-65
2023/01/21 03:30:20;;;;;;;3.97;3.23;;;0.90;99.90;;;0.59;85.66;100103.38;5080491;28;20649;-64
2023/01/21 03:32:51;;;;;;;4.70;3.30;;;0.90;99.90;;;0.59;85.50;100093.25;5076513;28;20201;-65
2023/01/21 03:35:25;;;;;;;3.73;2.87;;;0.90;99.90;;;0.59;85.19;100085.63;5085886;28;20201;-64
2023/01/21 03:38:02;;;;;;;3.53;3.03;;;1.00;99.90;;;0.59;85.49;100088.16;5087943;28;20546;-64
2023/01/21 03:40:37;;;;;;;4.47;3.67;;;0.90;99.90;;;0.58;84.99;100087.31;5083913;28;20661;-64
2023/01/21 03:43:05;;;;;;;3.83;3.20;;;0.90;99.90;;;0.58;85.61;100094.06;5075795;28;20567;-65
2023/01/21 03:45:44;;;;;;;3.43;2.83;;;0.90;99.90;;;0.57;85.14;100089.81;5086035;28;20336;-64
2023/01/21 03:48:22;;;;;;;3.50;2.80;;;0.90;99.90;;;0.56;85.57;100096.56;5088394;28;20204;-63
2023/01/21 03:50:58;;;;;;;4.20;2.60;;;0.90;99.90;;;0.55;85.37;100094.81;5082676;28;20205;-66
2023/01/21 03:53:29;;;;;;;2.93;2.50;;;0.90;99.90;;;0.53;85.49;100080.41;5084321;28;20204;-63
2023/01/21 03:55:58;;;;;;;4.77;2.20;;;0.90;99.90;;;0.53;85.24;100071.13;5081376;28;20196;-65
2023/01/21 03:58:27;;;;;;;2.87;2.37;;;0.90;99.90;;;0.53;85.79;100067.72;5086750;28;20273;-67
2023/01/21 04:00:56;;;;;;;3.40;2.40;;;0.90;99.90;;;0.55;85.69;100059.34;5077448;28;20240;-64
2023/01/21 04:03:25;;;;;;;3.60;2.90;;;1.00;99.90;;;0.57;85.99;100050.13;5076752;28;20651;-64
2023/01/21 04:05:53;;;;;;;2.73;2.03;;;0.90;99.90;;;0.58;85.84;100048.44;5087129;28;20409;-64
2023/01/21 04:08:21;;;;;;;3.67;2.67;;;0.90;99.90;;;0.58;85.25;100048.44;5088654;28;20211;-63
2023/01/21 04:10:51;;;;;;;2.13;1.90;;;0.90;99.90;;;0.57;86.15;100046.72;5073300;28;20346;-64
2023/01/21 04:13:20;;;;;;;2.90;2.20;;;0.90;99.90;;;0.55;85.86;100064.41;5080405;28;20226;-64
2023/01/21 04:15:48;;;;;;;2.10;1.90;;;0.90;99.90;;;0.54;86.02;100061.84;5088942;28;20212;-64
2023/01/21 04:18:17;;;;;;;2.43;2.00;;;0.90;99.90;;;0.54;85.69;100066.91;5081499;28;20273;-64
2023/01/21 04:20:46;;;;;;;3.63;1.93;;;0.90;99.90;;;0.54;85.51;100070.28;5052381;28;20236;-65
2023/01/21 04:23:15;;;;;;;1.77;1.53;;;0.90;99.90;;;0.55;85.27;100073.69;5092054;28;20368;-65
2023/01/21 04:25:43;;;;;;;2.30;1.73;;;0.90;99.90;;;0.55;86.10;100071.16;5090310;28;20654;-65
2023/01/21 04:28:13;;;;;;;1.70;1.60;;;0.90;99.90;;;0.54;86.04;100077.91;5090773;28;20213;-64
2023/01/21 04:30:41;;;;;;;1.97;1.57;;;0.90;99.90;;;0.53;85.79;100075.34;5092838;28;20208;-63
2023/01/21 04:33:10;;;;;;;2.47;1.80;;;0.90;99.90;;;0.54;85.83;100077.03;5086632;28;20238;-64
2023/01/21 04:35:38;;;;;;;1.30;1.20;;;0.90;99.90;;;0.55;86.09;100084.69;5086940;28;20250;-64
2023/01/21 04:38:07;;;;;;;1.13;1.03;;;0.90;99.90;;;0.56;85.64;100083.03;5090464;28;20209;-65
2023/01/21 04:40:36;;;;;;;1.20;1.10;;;0.90;99.90;;;0.56;85.76;100085.56;5091306;28;20215;-65
2023/01/21 04:43:04;;;;;;;1.30;1.20;;;0.90;99.90;;;0.58;86.20;100099.13;5088678;28;20314;-65
2023/01/21 04:45:34;;;;;;;2.50;1.10;;;0.90;99.90;;;0.56;85.60;100080.50;5086960;28;20281;-65
2023/01/21 04:48:02;;;;;;;1.33;1.17;;;0.90;99.90;;;0.59;86.14;100080.56;5092823;28;20196;-66
2023/01/21 04:50:31;;;;;;;1.47;1.10;;;0.90;99.90;;;0.56;85.53;100076.28;5084362;28;20204;-66
2023/01/21 04:52:59;;;;;;;1.20;1.10;;;0.90;99.90;;;0.55;85.60;100081.28;5088009;28;20687;-64
2023/01/21 04:55:28;;;;;;;1.17;1.07;;;0.90;99.90;;;0.56;86.17;100086.44;5090606;28;20201;-65
2023/01/21 04:57:56;;;;;;;1.30;1.20;;;0.90;99.90;;;0.55;85.36;100089.75;5090313;28;20205;-65
2023/01/21 05:00:25;;;;;;;0.77;0.77;;;0.90;99.90;;;0.55;85.68;100082.16;5090025;28;20243;-63
2023/01/21 05:02:55;;;;;;;1.20;1.00;;;0.90;99.90;;;0.54;86.28;100082.13;5091805;28;20204;-64
2023/01/21 05:05:23;;;;;;;1.10;1.00;;;0.90;99.90;;;0.53;86.05;100086.34;5088997;28;20224;-63
2023/01/21 05:07:53;;;;;;;1.07;0.93;;;0.90;99.90;;;0.53;85.88;100080.41;5089212;28;20576;-63
2023/01/21 05:10:21;;;;;;;2.43;1.10;;;0.90;99.90;;;0.56;85.95;100080.50;5088806;28;20711;-62
2023/01/21 05:12:50;;;;;;;1.13;0.73;;;0.90;99.90;;;0.59;86.01;100076.38;5088418;28;20242;-63
2023/01/21 05:15:18;;;;;;;1.07;0.80;;;0.90;99.90;;;0.62;85.76;100081.50;5090806;28;20769;-65
2023/01/21 05:17:47;;;;;;;0.63;0.63;;;0.90;99.90;;;0.60;85.70;100085.69;5090530;28;20231;-66
2023/01/21 05:20:17;;;;;;;1.00;0.80;;;0.90;99.90;;;0.59;85.94;100075.50;5091699;28;20293;-64
2023/01/21 05:22:48;;;;;;;1.00;1.00;;;0.90;99.90;;;0.59;85.83;100067.88;5082892;28;20319;-63
2023/01/21 05:25:17;;;;;;;0.80;0.80;;;0.90;99.90;;;0.60;85.73;100079.78;5091725;28;20212;-64
2023/01/21 05:27:52;;;;;;;0.60;0.57;;;0.90;99.90;;;0.57;85.72;100067.00;5089695;28;20263;-63
2023/01/21 05:30:21;;;;;;;0.90;0.80;;;0.90;99.90;;;0.59;86.06;100076.38;5091359;28;20235;-64
2023/01/21 05:32:54;;;;;;;0.90;0.73;;;0.90;99.90;;;0.57;85.87;100083.06;5089185;28;20204;-64
2023/01/21 05:35:24;;;;;;;1.67;1.00;;;0.90;99.90;;;0.56;85.66;100068.69;5091725;28;20208;-64
2023/01/21 05:37:53;;;;;;;1.43;0.83;;;0.90;99.90;;;0.57;86.22;100074.59;5081333;28;20283;-64
2023/01/21 05:40:21;;;;;;;2.50;0.80;;;0.90;99.90;;;0.57;85.48;100069.53;5074747;28;20201;-65
2023/01/21 05:42:50;;;;;;;0.67;0.67;;;0.90;99.90;;;0.57;86.15;100067.00;5076447;28;20649;-63
2023/01/21 05:45:18;;;;;;;0.80;0.70;;;0.90;99.90;;;0.54;85.70;100066.91;5089230;28;20243;-65
2023/01/21 05:47:47;;;;;;;0.70;0.70;;;0.90;99.90;;;0.56;85.84;100066.16;5089149;28;20228;-65
2023/01/21 05:50:15;;;;;;;0.60;0.60;;;0.90;99.90;;;0.54;86.01;100074.50;5042519;28;20645;-64
2023/01/21 05:52:46;;;;;;;0.70;0.70;;;0.90;99.90;;;0.55;86.24;100073.69;5085993;28;20255;-64
2023/01/21 05:55:15;;;;;;;0.73;0.73;;;0.90;99.90;;;0.54;86.41;100074.50;5086324;28;20208;-66
2023/01/21 05:57:43;;;;;;;0.70;0.70;;;0.90;99.90;;;0.55;86.43;100088.91;5083027;28;20212;-63
2023/01/21 06:00:13;;;;;;;0.70;0.60;;;0.90;99.90;;;0.55;85.89;100086.38;5071325;28;20689;-65
2023/01/21 06:02:42;;;;;;;0.77;0.77;;;0.90;99.90;;;0.55;86.42;100082.16;5058709;28;20292;-65
2023/01/21 06:05:10;;;;;;;0.70;0.70;;;0.90;99.90;;;0.55;86.06;100092.28;5090725;28;20205;-65
2023/01/21 06:07:39;;;;;;;0.67;0.43;;;0.90;99.90;;;0.58;86.44;100094.06;5086768;28;20656;-63
2023/01/21 06:10:10;;;;;;;0.63;0.50;;;0.90;99.90;;;0.57;86.26;100090.66;5090814;28;20598;-63
2023/01/21 06:12:39;;;;;;;0.50;0.50;;;0.90;99.90;;;0.57;86.24;100090.66;5087497;28;20270;-66
2023/01/21 06:15:08;;;;;;;0.80;0.70;;;0.90;99.90;;;0.55;85.92;100089.75;5083114;28;20206;-63
2023/01/21 06:17:39;;;;;;;0.93;0.70;;;0.90;99.90;;;0.55;86.31;100089.75;5083670;28;20196;-66
2023/01/21 06:20:10;;;;;;;0.63;0.63;;;0.90;99.90;;;0.55;86.33;100088.91;5090405;28;20263;-65
2023/01/21 06:22:39;;;;;;;0.70;0.60;;;0.90;99.90;;;0.55;86.01;100094.81;5079565;28;20589;-63
2023/01/21 06:25:10;;;;;;;0.60;0.60;;;0.90;99.90;;;0.55;86.05;100091.44;5082004;28;20321;-64
2023/01/21 06:27:38;;;;;;;1.20;0.83;;;0.90;99.90;;;0.56;86.69;100093.19;5077454;28;20265;-64
2023/01/21 06:30:09;;;;;;;2.77;0.63;;;0.90;99.90;;;0.57;86.37;100089.81;5079846;28;20616;-63
2023/01/21 06:32:38;;;;;;;0.90;0.60;;;0.90;99.90;;;0.58;86.27;100084.78;5082597;28;21660;-69
2023/01/21 06:35:07;;;;;;;0.60;0.60;;;0.90;99.90;;;0.58;86.54;100086.47;5080350;28;20294;-65
2023/01/21 06:37:35;;;;;;;1.60;0.80;;;0.90;99.90;;;0.59;86.21;100095.78;5076969;28;20208;-65
2023/01/21 06:40:06;;;;;;;0.80;0.80;;;0.90;99.90;;;0.60;86.64;100094.97;5084951;28;20245;-65
2023/01/21 06:42:36;;;;;;;0.70;0.70;;;1.00;99.90;;;0.60;86.16;100097.53;5088263;28;20204;-63
2023/01/21 06:45:06;;;;;;;1.37;1.13;;;1.00;99.90;;;0.60;86.36;100098.38;5078948;28;20250;-65
2023/01/21 06:47:35;;;;;;;1.37;1.00;;;1.00;99.90;;;0.56;86.17;100095.72;5087159;28;20232;-65
2023/01/21 06:50:04;;;;;;;0.70;0.70;;;0.90;99.90;;;0.57;86.03;100092.34;5090667;28;20649;-65
2023/01/21 06:52:32;;;;;;;0.80;0.70;;;0.90;99.90;;;0.57;86.24;100097.41;5090398;28;20549;-66
2023/01/21 06:55:01;;;;;;;2.33;0.77;;;0.90;99.90;;;0.58;86.90;100099.13;5085498;28;20239;-66
2023/01/21 06:57:30;;;;;;;0.70;0.70;;;0.90;99.90;;;0.58;85.89;100112.66;5083300;28;20205;-65
2023/01/21 07:00:00;;;;;;;0.90;0.73;;;0.90;99.90;;;0.57;86.82;100097.41;5090599;28;20563;-64
2023/01/21 07:02:28;;;;;;;0.60;0.60;;;0.90;99.90;;;0.56;86.52;100105.84;5088028;28;20257;-67
2023/01/21 07:04:57;;;;;;;0.73;0.70;;;0.90;99.90;;;0.54;86.38;100100.72;5086808;28;20200;-65
2023/01/21 07:07:26;;;;;;;0.50;0.50;;;0.90;99.90;;;0.53;86.39;100101.53;5087542;28;20319;-65
2023/01/21 07:09:55;;;;;;;0.93;0.60;;;0.90;99.90;;;0.53;86.88;100104.06;5089956;28;20215;-69
2023/01/21 07:12:23;;;;;;;1.10;0.80;;;0.90;99.90;;;0.53;86.52;100111.69;5081281;28;20269;-65
2023/01/21 07:14:52;;;;;;;0.90;0.70;;;0.90;99.90;;;0.53;86.77;100111.69;5086446;28;20564;-65
2023/01/21 07:17:22;;;;;;;0.67;0.67;;;0.90;99.90;;;0.54;86.89;100110.84;5064665;28;20258;-68
2023/01/21 07:19:50;;;;;;;0.57;0.57;;;0.90;99.90;;;0.55;86.70;100112.56;5086794;28;20665;-65
2023/01/21 07:22:19;;;;;;;0.90;0.60;;;0.90;99.90;;;0.53;87.26;100109.16;5090001;28;20695;-68
2023/01/21 07:24:48;;;;;;;0.53;0.50;;;0.90;99.90;;;0.50;86.97;100108.19;5087200;28;20247;-71
2023/01/21 07:27:16;;;;;;;1.37;0.60;;;0.90;99.90;;;0.50;86.98;100108.19;5026424;28;20274;-73
2023/01/21 07:29:44;;;;;;;0.73;0.50;;;0.90;99.90;;;0.49;87.40;100102.28;5086261;28;20243;-72
2023/01/21 07:32:13;;;;;;;0.40;0.40;;;0.90;99.90;;;0.48;87.21;100101.41;5088529;28;20208;-73
2023/01/21 07:34:43;;;;;;;1.13;0.60;;;0.80;99.90;;;0.47;87.28;100107.28;5085904;28;20211;-72
2023/01/21 07:37:11;;;;;;;0.70;0.70;;;0.80;99.90;;;0.48;87.43;100098.03;5091122;28;20212;-69
2023/01/21 07:39:40;;;;;;;2.43;0.60;;;0.90;99.90;;;0.51;87.78;100102.31;5090647;28;20258;-73
2023/01/21 07:42:10;;;;;;;1.07;0.67;;;0.90;99.90;;;0.52;87.37;100109.97;5073878;28;20217;-67
2023/01/21 07:44:38;;;;;;;0.90;0.73;;;0.90;99.90;;;0.54;87.42;100094.78;5077483;28;20201;-66
2023/01/21 07:47:07;;;;;;;0.70;0.70;;;1.00;99.90;;;0.55;87.43;100099.91;5087307;28;20220;-69
2023/01/21 07:49:36;;;;;;;0.70;0.70;;;0.90;99.90;;;0.57;87.12;100098.28;5082409;28;20220;-66
2023/01/21 07:52:06;;;;;;;1.50;0.80;;;0.90;99.90;;;0.58;87.52;100094.91;5076864;28;20200;-66
2023/01/21 07:54:34;;;;;;;0.53;0.50;;;1.00;99.90;;;0.58;86.87;100094.91;5086793;28;20220;-65
2023/01/21 07:57:03;;;;;;;0.93;0.73;;;0.90;99.90;;;0.61;87.21;100099.22;5092638;28;20641;-64
2023/01/21 07:59:31;;;;;;;0.80;0.80;;;1.00;99.90;;;0.62;87.13;100096.72;5087582;28;20522;-65
2023/01/21 08:02:00;;;;;;;0.60;0.50;;;1.00;99.90;;;0.63;87.28;100092.53;5082339;28;20234;-65
2023/01/21 08:04:29;;;;;;;1.73;1.10;;;1.00;99.90;;;0.64;86.83;100112.84;5078807;28;20559;-65
2023/01/21 08:06:58;;;;;;;1.23;1.13;;;1.00;99.90;;;0.65;86.83;100098.50;5086553;28;20205;-64
2023/01/21 08:09:28;;;;;;;3.17;1.00;;;1.00;99.90;;;0.65;86.65;100096.81;5086127;28;20220;-66
2023/01/21 08:11:57;;;;;;;0.60;0.60;;;1.00;99.90;;;0.68;86.83;100101.13;5085343;28;20220;-67
2023/01/21 08:14:25;;;;;;;1.13;0.90;;;1.10;99.90;;;0.69;86.60;100105.38;5090297;28;20216;-67
2023/01/21 08:16:53;;;;;;;0.83;0.67;;;1.10;99.90;;;0.71;87.26;100111.38;5088598;28;20204;-65
2023/01/21 08:19:22;;;;;;;1.23;0.70;;;1.10;99.90;;;0.72;86.83;100108.00;5081100;28;20287;-66
2023/01/21 08:21:51;;;;;;;0.80;0.80;;;1.10;99.90;;;0.73;86.54;100104.66;5092531;28;20201;-66
2023/01/21 08:24:20;;;;;;;1.37;0.80;;;1.10;99.90;;;0.73;86.57;100105.50;5086023;28;20205;-67
2023/01/21 08:26:51;;;;;;;1.10;0.90;;;1.10;99.90;;;0.73;86.74;100114.78;5080400;28;20232;-67
2023/01/21 08:29:19;;;;;;;1.67;0.80;;;1.10;99.90;;;0.75;86.82;100118.25;5082737;28;20301;-66
2023/01/21 08:31:48;;;;;;;1.07;0.73;;;1.10;99.90;;;0.76;86.59;100117.41;5090081;28;20657;-65
2023/01/21 08:34:16;;;;;;;0.93;0.90;;;1.10;99.90;;;0.77;86.16;100123.34;5090528;28;20256;-66
2023/01/21 08:36:45;;;;;;;1.00;0.87;;;1.20;99.90;;;0.79;86.21;100117.50;5088162;28;20245;-66
2023/01/21 08:39:14;;;;;;;1.30;0.90;;;1.20;99.90;;;0.81;85.98;100126.03;5091654;28;20208;-67
2023/01/21 08:41:44;;;;;;;0.80;0.80;;;1.20;99.90;;;0.84;86.17;100130.31;5085657;28;20211;-67
2023/01/21 08:44:13;;;;;;;1.40;1.10;;;1.20;99.90;;;0.82;86.12;100130.28;5087396;28;20222;-66
2023/01/21 08:46:42;;;;;;;1.93;1.57;;;1.20;99.90;;;0.86;86.32;100132.09;5083594;28;20212;-69
2023/01/21 08:49:10;;;;;;;1.97;1.37;;;1.20;99.90;;;0.90;86.05;100138.13;5087162;28;20229;-66
2023/01/21 08:51:40;;;;;;;2.13;1.20;;;1.30;99.90;;;0.90;86.31;100138.13;5085728;28;20215;-66
2023/01/21 08:54:09;;;;;;;1.20;1.10;;;1.20;99.90;;;0.90;85.82;100138.97;5045067;28;20266;-65
2023/01/21 08:56:37;;;;;;;1.63;1.00;;;1.20;99.90;;;0.87;85.96;100128.72;5083631;28;20235;-66
2023/01/21 08:59:06;;;;;;;8.50;5.23;;;1.30;99.90;;;0.92;85.78;100142.44;5081958;28;20309;-66
2023/01/21 09:01:39;;;;;;;1.33;1.23;;;1.30;99.90;;;0.94;86.20;100143.31;5086946;28;20270;-63
2023/01/21 09:04:09;;;;;;;2.87;1.90;;;1.30;99.90;;;0.95;85.34;100145.03;5092379;28;20288;-67
2023/01/21 09:06:37;;;;;;;3.03;1.90;;;1.30;99.90;;;1.00;86.04;100145.19;5090202;28;20205;-66
2023/01/21 09:09:05;;;;;;;1.87;1.30;;;1.30;99.90;;;1.03;86.26;100146.91;5080845;28;20224;-67
2023/01/21 09:11:34;;;;;;;2.37;1.50;;;1.40;99.90;;;1.07;85.99;100146.19;5082941;28;20657;-68
2023/01/21 09:14:03;;;;;;;2.93;1.70;;;1.40;99.90;;;1.08;85.73;100145.41;5092277;28;20201;-68
2023/01/21 09:16:32;;;;;;;1.97;1.27;;;1.40;99.90;;;1.10;86.06;100157.28;5091638;28;20215;-69
2023/01/21 09:19:02;;;;;;;1.33;1.23;;;1.40;99.90;;;1.09;85.78;100139.50;5092817;28;20201;-67
2023/01/21 09:21:33;;;;;;;2.43;1.53;;;1.40;99.90;;;1.12;85.85;100149.72;5094398;28;20204;-68
2023/01/21 09:24:02;;;;;;;1.63;1.50;;;1.50;99.90;;;1.13;85.59;100147.22;5086761;28;20661;-66
2023/01/21 09:26:31;;;;;;;2.80;1.70;;;1.50;99.90;;;1.15;85.94;100154.91;5083175;28;20283;-71
2023/01/21 09:29:01;;;;;;;1.93;1.60;;;1.50;99.90;;;1.17;86.07;100159.19;5082392;28;20216;-66
2023/01/21 09:31:31;;;;;;;2.57;2.20;;;1.50;99.90;;;1.17;85.52;100155.78;5079440;28;20568;-66
2023/01/21 09:34:04;;;;;;;4.23;2.20;;;1.50;99.90;;;1.16;85.29;100166.75;5092721;28;20204;-67
2023/01/21 09:36:34;;;;;;;2.00;1.67;;;1.50;99.90;;;1.17;85.48;100165.94;5083075;28;20280;-66
2023/01/21 09:39:03;;;;;;;3.57;1.50;;;1.50;99.90;;;1.16;85.22;100169.31;5073944;28;20247;-67
2023/01/21 09:41:37;;;;;;;1.87;1.57;;;1.50;99.90;;;1.16;85.30;100166.75;5087435;28;20281;-66
2023/01/21 09:44:16;;;;;;;1.33;1.23;;;1.50;99.90;;;1.14;84.98;100168.38;5083396;28;20758;-67
2023/01/21 09:46:52;;;;;;;1.90;1.70;;;1.50;99.90;;;1.14;86.08;100154.03;5086898;28;20201;-66
2023/01/21 09:49:27;;;;;;;2.40;1.50;;;1.50;99.90;;;1.17;85.44;100160.88;5085941;28;20254;-67
2023/01/21 09:52:06;;;;;;;2.50;1.87;;;1.50;99.90;;;1.20;85.54;100173.63;5085717;28;20208;-68
2023/01/21 09:54:38;;;;;;;2.97;1.90;;;1.50;99.90;;;1.17;85.33;100182.03;5090094;28;20321;-66
2023/01/21 09:57:46;;;;;;;2.83;1.87;;;1.50;99.90;;;1.17;85.93;100171.00;5090395;28;20234;-66
2023/01/21 10:00:32;;;;;;;3.00;2.33;;;1.50;99.90;;;1.15;84.92;100176.06;5046254;28;20270;-70
2023/01/21 10:03:12;;;;;;;2.73;2.13;;;1.50;99.90;;;1.12;85.78;100170.88;5074016;28;20246;-67
2023/01/21 10:06:15;;;;;;;2.87;2.23;;;1.50;99.90;;;1.12;85.18;100175.09;5088698;28;20250;-66
2023/01/21 10:09:13;;;;;;;3.33;2.20;;;1.50;99.90;;;1.12;85.92;100175.09;5085888;28;20270;-69
2023/01/21 10:11:59;;;;;;;4.47;2.27;;;1.50;99.90;;;1.11;85.81;100189.47;5079052;28;20240;-64
2023/01/21 10:15:19;;;;;;;3.97;2.53;;;1.40;99.90;;;1.12;85.56;100188.66;5083413;28;20633;-67
2023/01/21 10:17:56;;;;;;;3.07;2.53;;;1.50;99.90;;;1.11;86.19;100184.41;5068565;28;20654;-68
2023/01/21 10:20:30;;;;;;;4.67;2.90;;;1.40;99.90;;;1.10;85.82;100181.81;5077686;28;20238;-68
2023/01/21 10:23:06;;;;;;;4.73;3.03;;;1.50;99.90;;;1.11;86.41;100188.63;5080603;28;20192;-68
2023/01/21 10:25:37;;;;;;;3.97;2.90;;;1.50;99.90;;;1.12;86.23;100175.09;5077519;28;20224;-68
2023/01/21 10:28:12;;;;;;;4.97;3.10;;;1.50;99.90;;;1.14;86.57;100187.03;5070171;28;20200;-71
2023/01/21 10:30:44;;;;;;;4.80;3.57;;;1.50;99.90;;;1.16;85.88;100184.53;5052072;28;20640;-67
2023/01/21 10:33:19;;;;;;;6.10;3.43;;;1.50;99.90;;;1.18;85.79;100190.53;5089563;28;20239;-67
2023/01/21 10:36:38;;;;;;;5.80;3.70;;;1.60;99.90;;;1.20;86.48;100199.03;5082888;28;20981;-67
2023/01/21 10:39:20;;;;;;;5.20;3.67;;;1.50;99.90;;;1.20;85.74;100199.88;5090877;28;20233;-67
2023/01/21 10:42:13;;;;;;;7.47;3.93;;;1.60;99.90;;;1.14;86.27;100196.28;5083812;28;20253;-68
2023/01/21 10:44:49;;;;;;;5.13;4.00;;;1.60;99.90;;;1.21;86.10;100200.72;5083487;28;20574;-68
2023/01/21 10:47:29;;;;;;;6.37;4.07;;;1.60;99.90;;;1.22;85.58;100202.47;5084722;28;20200;-70
2023/01/21 10:50:11;;;;;;;5.50;3.93;;;1.60;99.90;;;1.23;86.60;100216.88;5091745;28;20269;-67
2023/01/21 10:52:46;;;;;;;7.10;4.17;;;1.60;99.90;;;1.28;86.49;100219.53;5086210;28;20196;-67